sensor_id;sensor_type;location;lat;lon;timestamp;temperature;humidity
46231;DHT22;31949;51.404;-0.038;2022-11-02T00:01:53;10.90;99.90
46231;DHT22;31949;51.404;-0.038;2022-11-02T00:04:20;10.90;99.90
46231;DHT22;31949;51.404;-0.038;2022-11-02T00:06:47;10.90;99.90
46231;DHT22;31949;51.404;-0.038;2022-11-02T00:09:14;10.90;99.90
46231;DHT22;31949;51.404;-0.038;2022-11-02T00:11:42;10.90;99.90
46231;DHT22;31949;51.404;-0.038;2022-11-02T00:14:09;10.80;99.90
46231;DHT22;31949;51.404;-0.038;2022-11-02T00:16:38;10.90;99.90
46231;DHT22;31949;51.404;-0.038;2022-11-02T00:19:07;10.90;99.90
46231;DHT22;31949;51.404;-0.038;2022-11-02T00:21:35;10.80;99.90
46231;DHT22;31949;51.404;-0.038;2022-11-02T00:24:04;10.90;99.90
46231;DHT22;31949;51.404;-0.038;2022-11-02T00:26:33;10.80;99.90
46231;DHT22;31949;51.404;-0.038;2022-11-02T00:29:02;10.80;99.90
46231;DHT22;31949;51.404;-0.038;2022-11-02T00:31:30;10.80;99.90
46231;DHT22;31949;51.404;-0.038;2022-11-02T00:33:57;10.80;99.90
46231;DHT22;31949;51.404;-0.038;2022-11-02T00:36:24;10.80;99.90
46231;DHT22;31949;51.404;-0.038;2022-11-02T00:38:52;10.70;99.90
46231;DHT22;31949;51.404;-0.038;2022-11-02T00:41:19;10.80;99.90
46231;DHT22;31949;51.404;-0.038;2022-11-02T00:43:47;10.70;99.90
46231;DHT22;31949;51.404;-0.038;2022-11-02T00:46:14;10.70;99.90
46231;DHT22;31949;51.404;-0.038;2022-11-02T00:48:41;10.70;99.90
46231;DHT22;31949;51.404;-0.038;2022-11-02T00:51:09;10.70;99.90
46231;DHT22;31949;51.404;-0.038;2022-11-02T00:53:41;10.70;99.90
46231;DHT22;31949;51.404;-0.038;2022-11-02T00:56:09;10.70;99.90
46231;DHT22;31949;51.404;-0.038;2022-11-02T00:58:36;10.70;99.90
46231;DHT22;31949;51.404;-0.038;2022-11-02T01:01:05;10.70;99.90
46231;DHT22;31949;51.404;-0.038;2022-11-02T01:03:32;10.60;99.90
46231;DHT22;31949;51.404;-0.038;2022-11-02T01:06:10;10.60;99.90
46231;DHT22;31949;51.404;-0.038;2022-11-02T01:08:38;10.60;99.90
46231;DHT22;31949;51.404;-0.038;2022-11-02T01:11:17;10.60;99.90
46231;DHT22;31949;51.404;-0.038;2022-11-02T01:13:46;10.60;99.90
46231;DHT22;31949;51.404;-0.038;2022-11-02T01:16:13;10.50;99.90
46231;DHT22;31949;51.404;-0.038;2022-11-02T01:18:41;10.50;99.90
46231;DHT22;31949;51.404;-0.038;2022-11-02T01:21:09;10.40;99.90
46231;DHT22;31949;51.404;-0.038;2022-11-02T01:23:38;10.50;99.90
46231;DHT22;31949;51.404;-0.038;2022-11-02T01:26:07;10.50;99.90
46231;DHT22;31949;51.404;-0.038;2022-11-02T01:28:35;10.40;99.90
46231;DHT22;31949;51.404;-0.038;2022-11-02T01:31:02;10.40;99.90
46231;DHT22;31949;51.404;-0.038;2022-11-02T01:33:30;10.30;99.90
46231;DHT22;31949;51.404;-0.038;2022-11-02T01:35:57;10.40;99.90
46231;DHT22;31949;51.404;-0.038;2022-11-02T01:38:24;10.40;99.90
46231;DHT22;31949;51.404;-0.038;2022-11-02T01:40:51;10.30;99.90
46231;DHT22;31949;51.404;-0.038;2022-11-02T01:43:29;10.30;99.90
46231;DHT22;31949;51.404;-0.038;2022-11-02T01:48:44;10.30;99.90
46231;DHT22;31949;51.404;-0.038;2022-11-02T01:51:30;10.20;99.90
46231;DHT22;31949;51.404;-0.038;2022-11-02T01:54:07;10.20;99.90
46231;DHT22;31949;51.404;-0.038;2022-11-02T01:56:37;10.20;99.90
46231;DHT22;31949;51.404;-0.038;2022-11-02T01:59:13;10.20;99.90
46231;DHT22;31949;51.404;-0.038;2022-11-02T02:01:41;10.20;99.90
46231;DHT22;31949;51.404;-0.038;2022-11-02T02:04:10;10.20;99.90
46231;DHT22;31949;51.404;-0.038;2022-11-02T02:06:39;10.20;99.90
46231;DHT22;31949;51.404;-0.038;2022-11-02T02:09:08;10.20;99.90
46231;DHT22;31949;51.404;-0.038;2022-11-02T02:11:37;10.20;99.90
46231;DHT22;31949;51.404;-0.038;2022-11-02T02:14:13;10.20;99.90
46231;DHT22;31949;51.404;-0.038;2022-11-02T02:22:28;10.10;99.90
46231;DHT22;31949;51.404;-0.038;2022-11-02T02:30:16;10.10;99.90
46231;DHT22;31949;51.404;-0.038;2022-11-02T02:32:50;10.10;99.90
46231;DHT22;31949;51.404;-0.038;2022-11-02T02:35:57;10.00;99.90
46231;DHT22;31949;51.404;-0.038;2022-11-02T02:38:35;10.10;99.90
46231;DHT22;31949;51.404;-0.038;2022-11-02T02:44:02;10.00;99.90
46231;DHT22;31949;51.404;-0.038;2022-11-02T02:46:45;10.00;99.90
46231;DHT22;31949;51.404;-0.038;2022-11-02T02:49:22;10.00;99.90
46231;DHT22;31949;51.404;-0.038;2022-11-02T02:51:52;10.00;99.90
46231;DHT22;31949;51.404;-0.038;2022-11-02T02:54:30;10.00;99.90
46231;DHT22;31949;51.404;-0.038;2022-11-02T02:57:05;10.00;99.90
46231;DHT22;31949;51.404;-0.038;2022-11-02T02:59:38;9.90;99.90
46231;DHT22;31949;51.404;-0.038;2022-11-02T03:04:58;9.90;99.90
46231;DHT22;31949;51.404;-0.038;2022-11-02T03:07:31;9.90;99.90
46231;DHT22;31949;51.404;-0.038;2022-11-02T03:10:40;9.90;99.90
46231;DHT22;31949;51.404;-0.038;2022-11-02T03:16:03;9.90;99.90
46231;DHT22;31949;51.404;-0.038;2022-11-02T03:18:54;9.90;99.90
46231;DHT22;31949;51.404;-0.038;2022-11-02T03:21:33;9.90;99.90
46231;DHT22;31949;51.404;-0.038;2022-11-02T03:30:02;9.90;99.90
46231;DHT22;31949;51.404;-0.038;2022-11-02T03:32:36;9.90;99.90
46231;DHT22;31949;51.404;-0.038;2022-11-02T03:35:10;9.90;99.90
46231;DHT22;31949;51.404;-0.038;2022-11-02T03:37:48;9.90;99.90
46231;DHT22;31949;51.404;-0.038;2022-11-02T03:40:26;9.90;99.90
46231;DHT22;31949;51.404;-0.038;2022-11-02T03:42:55;9.90;99.90
46231;DHT22;31949;51.404;-0.038;2022-11-02T03:45:26;9.90;99.90
46231;DHT22;31949;51.404;-0.038;2022-11-02T03:48:03;9.90;99.90
46231;DHT22;31949;51.404;-0.038;2022-11-02T03:50:33;9.80;99.90
46231;DHT22;31949;51.404;-0.038;2022-11-02T03:53:10;9.90;99.90
46231;DHT22;31949;51.404;-0.038;2022-11-02T03:55:41;9.90;99.90
46231;DHT22;31949;51.404;-0.038;2022-11-02T03:58:11;9.80;99.90
46231;DHT22;31949;51.404;-0.038;2022-11-02T04:00:51;9.90;99.90
46231;DHT22;31949;51.404;-0.038;2022-11-02T04:03:21;9.80;99.90
46231;DHT22;31949;51.404;-0.038;2022-11-02T04:05:50;9.90;99.90
46231;DHT22;31949;51.404;-0.038;2022-11-02T04:08:36;9.80;99.90
46231;DHT22;31949;51.404;-0.038;2022-11-02T04:11:08;9.80;99.90
46231;DHT22;31949;51.404;-0.038;2022-11-02T04:13:58;9.80;99.90
46231;DHT22;31949;51.404;-0.038;2022-11-02T04:16:44;9.80;99.90
46231;DHT22;31949;51.404;-0.038;2022-11-02T04:19:23;9.70;99.90
46231;DHT22;31949;51.404;-0.038;2022-11-02T04:21:57;9.70;99.90
46231;DHT22;31949;51.404;-0.038;2022-11-02T04:24:46;9.70;99.90
46231;DHT22;31949;51.404;-0.038;2022-11-02T04:27:33;9.60;99.90
46231;DHT22;31949;51.404;-0.038;2022-11-02T04:30:00;9.60;99.90
46231;DHT22;31949;51.404;-0.038;2022-11-02T04:32:40;9.50;99.90
46231;DHT22;31949;51.404;-0.038;2022-11-02T04:35:29;9.50;99.90
46231;DHT22;31949;51.404;-0.038;2022-11-02T04:37:58;9.50;99.90
46231;DHT22;31949;51.404;-0.038;2022-11-02T04:40:45;9.40;99.90
46231;DHT22;31949;51.404;-0.038;2022-11-02T04:43:12;9.40;99.90
46231;DHT22;31949;51.404;-0.038;2022-11-02T04:45:40;9.40;99.90
46231;DHT22;31949;51.404;-0.038;2022-11-02T04:48:08;9.30;99.90
46231;DHT22;31949;51.404;-0.038;2022-11-02T04:50:37;9.30;99.90
46231;DHT22;31949;51.404;-0.038;2022-11-02T04:53:05;9.30;99.90
46231;DHT22;31949;51.404;-0.038;2022-11-02T04:55:34;9.30;99.90
46231;DHT22;31949;51.404;-0.038;2022-11-02T04:58:02;9.30;99.90
46231;DHT22;31949;51.404;-0.038;2022-11-02T05:00:30;9.20;99.90
46231;DHT22;31949;51.404;-0.038;2022-11-02T05:02:58;9.20;99.90
46231;DHT22;31949;51.404;-0.038;2022-11-02T05:05:25;9.20;99.90
46231;DHT22;31949;51.404;-0.038;2022-11-02T05:07:56;9.20;99.90
46231;DHT22;31949;51.404;-0.038;2022-11-02T05:10:24;9.10;99.90
46231;DHT22;31949;51.404;-0.038;2022-11-02T05:12:56;9.10;99.90
46231;DHT22;31949;51.404;-0.038;2022-11-02T05:15:27;9.20;99.90
46231;DHT22;31949;51.404;-0.038;2022-11-02T05:17:55;9.10;99.90
46231;DHT22;31949;51.404;-0.038;2022-11-02T05:20:22;9.20;99.90
46231;DHT22;31949;51.404;-0.038;2022-11-02T05:22:49;9.10;99.90
46231;DHT22;31949;51.404;-0.038;2022-11-02T05:25:18;9.10;99.90
46231;DHT22;31949;51.404;-0.038;2022-11-02T05:27:45;9.20;99.90
46231;DHT22;31949;51.404;-0.038;2022-11-02T05:30:13;9.20;99.90
46231;DHT22;31949;51.404;-0.038;2022-11-02T05:32:42;9.20;99.90
46231;DHT22;31949;51.404;-0.038;2022-11-02T05:35:09;9.20;99.90
46231;DHT22;31949;51.404;-0.038;2022-11-02T05:37:38;9.20;99.90
46231;DHT22;31949;51.404;-0.038;2022-11-02T05:40:06;9.20;99.90
46231;DHT22;31949;51.404;-0.038;2022-11-02T05:42:35;9.20;99.90
46231;DHT22;31949;51.404;-0.038;2022-11-02T05:45:02;9.20;99.90
46231;DHT22;31949;51.404;-0.038;2022-11-02T05:47:29;9.20;99.90
46231;DHT22;31949;51.404;-0.038;2022-11-02T05:49:56;9.20;99.90
46231;DHT22;31949;51.404;-0.038;2022-11-02T05:52:24;9.30;99.90
46231;DHT22;31949;51.404;-0.038;2022-11-02T05:54:51;9.30;99.90
46231;DHT22;31949;51.404;-0.038;2022-11-02T05:57:18;9.30;99.90
46231;DHT22;31949;51.404;-0.038;2022-11-02T05:59:45;9.30;99.90
46231;DHT22;31949;51.404;-0.038;2022-11-02T06:02:15;9.30;99.90
46231;DHT22;31949;51.404;-0.038;2022-11-02T06:04:42;9.30;99.90
46231;DHT22;31949;51.404;-0.038;2022-11-02T06:07:09;9.30;99.90
46231;DHT22;31949;51.404;-0.038;2022-11-02T06:09:36;9.30;99.90
46231;DHT22;31949;51.404;-0.038;2022-11-02T06:12:04;9.30;99.90
46231;DHT22;31949;51.404;-0.038;2022-11-02T06:14:31;9.30;99.90
46231;DHT22;31949;51.404;-0.038;2022-11-02T06:16:58;9.30;99.90
46231;DHT22;31949;51.404;-0.038;2022-11-02T06:19:25;9.30;99.90
46231;DHT22;31949;51.404;-0.038;2022-11-02T06:21:52;9.40;99.90
46231;DHT22;31949;51.404;-0.038;2022-11-02T06:24:19;9.30;99.90
46231;DHT22;31949;51.404;-0.038;2022-11-02T06:26:47;9.30;99.90
46231;DHT22;31949;51.404;-0.038;2022-11-02T06:29:15;9.30;99.90
46231;DHT22;31949;51.404;-0.038;2022-11-02T06:31:42;9.30;99.90
46231;DHT22;31949;51.404;-0.038;2022-11-02T06:34:09;9.30;99.90
46231;DHT22;31949;51.404;-0.038;2022-11-02T06:36:36;9.30;99.90
46231;DHT22;31949;51.404;-0.038;2022-11-02T06:39:03;9.30;99.90
46231;DHT22;31949;51.404;-0.038;2022-11-02T06:41:30;9.20;99.90
46231;DHT22;31949;51.404;-0.038;2022-11-02T06:43:58;9.30;99.90
46231;DHT22;31949;51.404;-0.038;2022-11-02T06:46:25;9.20;99.90
46231;DHT22;31949;51.404;-0.038;2022-11-02T06:48:52;9.20;99.90
46231;DHT22;31949;51.404;-0.038;2022-11-02T06:51:19;9.20;99.90
46231;DHT22;31949;51.404;-0.038;2022-11-02T06:53:46;9.20;99.90
46231;DHT22;31949;51.404;-0.038;2022-11-02T06:56:13;9.20;99.90
46231;DHT22;31949;51.404;-0.038;2022-11-02T06:58:41;9.30;99.90
46231;DHT22;31949;51.404;-0.038;2022-11-02T07:01:08;9.20;99.90
46231;DHT22;31949;51.404;-0.038;2022-11-02T07:03:35;9.30;99.90
46231;DHT22;31949;51.404;-0.038;2022-11-02T07:06:03;9.30;99.90
46231;DHT22;31949;51.404;-0.038;2022-11-02T07:08:37;9.40;99.90
46231;DHT22;31949;51.404;-0.038;2022-11-02T07:11:04;9.40;99.90
46231;DHT22;31949;51.404;-0.038;2022-11-02T07:13:31;9.40;99.90
46231;DHT22;31949;51.404;-0.038;2022-11-02T07:15:58;9.50;99.90
46231;DHT22;31949;51.404;-0.038;2022-11-02T07:18:25;9.50;99.90
46231;DHT22;31949;51.404;-0.038;2022-11-02T07:20:58;9.60;99.90
46231;DHT22;31949;51.404;-0.038;2022-11-02T07:23:25;9.60;99.90
46231;DHT22;31949;51.404;-0.038;2022-11-02T07:25:53;9.60;99.90
46231;DHT22;31949;51.404;-0.038;2022-11-02T07:28:20;9.60;99.90
46231;DHT22;31949;51.404;-0.038;2022-11-02T07:30:48;9.60;99.90
46231;DHT22;31949;51.404;-0.038;2022-11-02T07:33:15;9.60;99.90
46231;DHT22;31949;51.404;-0.038;2022-11-02T07:35:42;9.60;99.90
46231;DHT22;31949;51.404;-0.038;2022-11-02T07:38:11;9.60;99.90
46231;DHT22;31949;51.404;-0.038;2022-11-02T07:40:38;9.70;99.90
46231;DHT22;31949;51.404;-0.038;2022-11-02T07:43:06;9.70;99.90
46231;DHT22;31949;51.404;-0.038;2022-11-02T07:45:54;9.70;99.90
46231;DHT22;31949;51.404;-0.038;2022-11-02T07:48:22;9.70;99.90
46231;DHT22;31949;51.404;-0.038;2022-11-02T07:50:49;9.80;99.90
46231;DHT22;31949;51.404;-0.038;2022-11-02T07:53:16;9.90;99.90
46231;DHT22;31949;51.404;-0.038;2022-11-02T07:55:43;9.90;99.90
46231;DHT22;31949;51.404;-0.038;2022-11-02T07:58:10;9.90;99.90
46231;DHT22;31949;51.404;-0.038;2022-11-02T08:00:41;10.00;99.90
46231;DHT22;31949;51.404;-0.038;2022-11-02T08:03:10;10.10;99.90
46231;DHT22;31949;51.404;-0.038;2022-11-02T08:05:40;10.20;99.90
46231;DHT22;31949;51.404;-0.038;2022-11-02T08:08:10;10.10;99.90
46231;DHT22;31949;51.404;-0.038;2022-11-02T08:10:38;10.20;99.90
46231;DHT22;31949;51.404;-0.038;2022-11-02T08:13:08;10.30;99.90
46231;DHT22;31949;51.404;-0.038;2022-11-02T08:15:36;10.30;99.90
46231;DHT22;31949;51.404;-0.038;2022-11-02T08:18:13;10.40;99.90
46231;DHT22;31949;51.404;-0.038;2022-11-02T08:20:41;10.50;99.90
46231;DHT22;31949;51.404;-0.038;2022-11-02T08:23:09;10.60;99.90
46231;DHT22;31949;51.404;-0.038;2022-11-02T08:25:37;10.70;99.90
46231;DHT22;31949;51.404;-0.038;2022-11-02T08:28:06;10.70;99.90
46231;DHT22;31949;51.404;-0.038;2022-11-02T08:30:34;10.90;99.90
46231;DHT22;31949;51.404;-0.038;2022-11-02T08:33:05;10.90;99.90
46231;DHT22;31949;51.404;-0.038;2022-11-02T08:35:33;10.90;99.90
46231;DHT22;31949;51.404;-0.038;2022-11-02T08:38:03;11.00;99.90
46231;DHT22;31949;51.404;-0.038;2022-11-02T08:40:31;11.00;99.90
46231;DHT22;31949;51.404;-0.038;2022-11-02T08:43:00;11.10;99.90
46231;DHT22;31949;51.404;-0.038;2022-11-02T08:45:29;11.20;99.90
46231;DHT22;31949;51.404;-0.038;2022-11-02T08:48:16;11.30;99.90
46231;DHT22;31949;51.404;-0.038;2022-11-02T08:50:43;11.30;99.90
46231;DHT22;31949;51.404;-0.038;2022-11-02T08:53:10;11.40;99.90
46231;DHT22;31949;51.404;-0.038;2022-11-02T08:55:37;11.50;99.90
46231;DHT22;31949;51.404;-0.038;2022-11-02T08:58:05;11.60;99.90
46231;DHT22;31949;51.404;-0.038;2022-11-02T09:00:33;11.60;99.90
46231;DHT22;31949;51.404;-0.038;2022-11-02T09:03:06;11.70;99.90
46231;DHT22;31949;51.404;-0.038;2022-11-02T09:05:45;11.80;99.90
46231;DHT22;31949;51.404;-0.038;2022-11-02T09:08:17;11.80;99.90
46231;DHT22;31949;51.404;-0.038;2022-11-02T09:10:48;12.00;99.90
46231;DHT22;31949;51.404;-0.038;2022-11-02T09:13:17;12.00;99.90
46231;DHT22;31949;51.404;-0.038;2022-11-02T09:15:50;12.10;99.90
46231;DHT22;31949;51.404;-0.038;2022-11-02T09:18:18;12.10;99.90
46231;DHT22;31949;51.404;-0.038;2022-11-02T09:20:46;12.20;99.90
46231;DHT22;31949;51.404;-0.038;2022-11-02T09:23:18;12.20;99.90
46231;DHT22;31949;51.404;-0.038;2022-11-02T09:25:46;12.30;99.90
46231;DHT22;31949;51.404;-0.038;2022-11-02T09:28:14;12.30;99.90
46231;DHT22;31949;51.404;-0.038;2022-11-02T09:30:42;12.40;99.90
46231;DHT22;31949;51.404;-0.038;2022-11-02T09:33:10;12.40;99.90
46231;DHT22;31949;51.404;-0.038;2022-11-02T09:35:48;12.40;99.90
46231;DHT22;31949;51.404;-0.038;2022-11-02T09:38:16;12.50;99.90
46231;DHT22;31949;51.404;-0.038;2022-11-02T09:46:00;12.60;99.90
46231;DHT22;31949;51.404;-0.038;2022-11-02T09:48:38;12.70;99.90
46231;DHT22;31949;51.404;-0.038;2022-11-02T09:51:07;12.90;99.90
46231;DHT22;31949;51.404;-0.038;2022-11-02T09:56:26;12.90;99.90
46231;DHT22;31949;51.404;-0.038;2022-11-02T09:59:00;13.00;99.90
46231;DHT22;31949;51.404;-0.038;2022-11-02T10:01:58;13.00;99.90
46231;DHT22;31949;51.404;-0.038;2022-11-02T10:04:38;13.10;99.90
46231;DHT22;31949;51.404;-0.038;2022-11-02T10:07:16;13.10;99.90
46231;DHT22;31949;51.404;-0.038;2022-11-02T10:09:53;13.10;99.90
46231;DHT22;31949;51.404;-0.038;2022-11-02T10:15:07;13.30;99.90
46231;DHT22;31949;51.404;-0.038;2022-11-02T10:17:39;13.40;99.90
46231;DHT22;31949;51.404;-0.038;2022-11-02T10:20:25;13.50;99.90
46231;DHT22;31949;51.404;-0.038;2022-11-02T10:23:01;13.50;99.90
46231;DHT22;31949;51.404;-0.038;2022-11-02T10:25:30;13.50;99.90
46231;DHT22;31949;51.404;-0.038;2022-11-02T10:28:04;13.50;99.90
46231;DHT22;31949;51.404;-0.038;2022-11-02T10:30:36;13.50;99.90
46231;DHT22;31949;51.404;-0.038;2022-11-02T10:33:11;13.50;99.90
46231;DHT22;31949;51.404;-0.038;2022-11-02T10:42:05;13.70;99.90
46231;DHT22;31949;51.404;-0.038;2022-11-02T10:47:26;13.80;99.90
46231;DHT22;31949;51.404;-0.038;2022-11-02T10:52:59;14.00;99.90
46231;DHT22;31949;51.404;-0.038;2022-11-02T10:58:26;14.20;99.90
46231;DHT22;31949;51.404;-0.038;2022-11-02T11:01:08;14.30;99.90
46231;DHT22;31949;51.404;-0.038;2022-11-02T11:06:23;14.30;99.90
46231;DHT22;31949;51.404;-0.038;2022-11-02T11:08:50;14.30;99.90
46231;DHT22;31949;51.404;-0.038;2022-11-02T11:11:58;14.30;99.90
46231;DHT22;31949;51.404;-0.038;2022-11-02T11:14:28;14.30;99.90
46231;DHT22;31949;51.404;-0.038;2022-11-02T11:17:23;14.40;99.90
46231;DHT22;31949;51.404;-0.038;2022-11-02T11:20:34;14.50;99.90
46231;DHT22;31949;51.404;-0.038;2022-11-02T11:23:10;14.60;99.90
46231;DHT22;31949;51.404;-0.038;2022-11-02T11:25:42;14.60;99.90
46231;DHT22;31949;51.404;-0.038;2022-11-02T11:28:22;14.70;99.90
46231;DHT22;31949;51.404;-0.038;2022-11-02T11:31:08;14.60;99.90
46231;DHT22;31949;51.404;-0.038;2022-11-02T11:33:56;14.70;99.90
46231;DHT22;31949;51.404;-0.038;2022-11-02T11:36:33;14.80;99.90
46231;DHT22;31949;51.404;-0.038;2022-11-02T11:41:51;14.80;99.90
46231;DHT22;31949;51.404;-0.038;2022-11-02T11:44:19;14.90;99.90
46231;DHT22;31949;51.404;-0.038;2022-11-02T11:46:52;14.80;99.90
46231;DHT22;31949;51.404;-0.038;2022-11-02T11:49:35;14.90;99.90
46231;DHT22;31949;51.404;-0.038;2022-11-02T11:52:27;14.90;99.90
46231;DHT22;31949;51.404;-0.038;2022-11-02T11:55:26;14.80;99.90
46231;DHT22;31949;51.404;-0.038;2022-11-02T11:58:15;14.90;99.90
46231;DHT22;31949;51.404;-0.038;2022-11-02T12:00:42;14.90;99.90
46231;DHT22;31949;51.404;-0.038;2022-11-02T12:03:11;14.90;99.90
46231;DHT22;31949;51.404;-0.038;2022-11-02T12:11:42;15.10;99.90
46231;DHT22;31949;51.404;-0.038;2022-11-02T12:22:53;15.30;99.90
46231;DHT22;31949;51.404;-0.038;2022-11-02T12:35:58;15.20;99.90
46231;DHT22;31949;51.404;-0.038;2022-11-02T12:38:59;15.10;99.90
46231;DHT22;31949;51.404;-0.038;2022-11-02T12:41:54;15.10;99.90
46231;DHT22;31949;51.404;-0.038;2022-11-02T12:55:36;15.00;99.90
46231;DHT22;31949;51.404;-0.038;2022-11-02T12:58:12;15.00;99.90
46231;DHT22;31949;51.404;-0.038;2022-11-02T13:00:43;15.00;99.90
46231;DHT22;31949;51.404;-0.038;2022-11-02T13:03:35;15.10;99.90
46231;DHT22;31949;51.404;-0.038;2022-11-02T13:06:09;15.10;99.90
46231;DHT22;31949;51.404;-0.038;2022-11-02T13:08:56;15.10;99.90
46231;DHT22;31949;51.404;-0.038;2022-11-02T13:11:33;15.00;99.90
46231;DHT22;31949;51.404;-0.038;2022-11-02T13:14:04;14.90;99.90
46231;DHT22;31949;51.404;-0.038;2022-11-02T13:16:48;14.90;99.90
46231;DHT22;31949;51.404;-0.038;2022-11-02T13:19:25;14.90;99.90
46231;DHT22;31949;51.404;-0.038;2022-11-02T13:21:55;15.00;99.90
46231;DHT22;31949;51.404;-0.038;2022-11-02T13:24:32;14.90;99.90
46231;DHT22;31949;51.404;-0.038;2022-11-02T13:27:03;14.90;99.90
46231;DHT22;31949;51.404;-0.038;2022-11-02T13:29:53;14.90;99.90
46231;DHT22;31949;51.404;-0.038;2022-11-02T13:32:44;14.80;99.90
46231;DHT22;31949;51.404;-0.038;2022-11-02T13:35:26;14.90;99.90
46231;DHT22;31949;51.404;-0.038;2022-11-02T13:38:05;14.90;99.90
46231;DHT22;31949;51.404;-0.038;2022-11-02T13:40:53;14.90;99.90
46231;DHT22;31949;51.404;-0.038;2022-11-02T13:43:44;14.90;99.90
46231;DHT22;31949;51.404;-0.038;2022-11-02T13:46:31;14.90;99.90
46231;DHT22;31949;51.404;-0.038;2022-11-02T13:49:12;14.90;99.90
46231;DHT22;31949;51.404;-0.038;2022-11-02T13:51:46;14.90;99.90
46231;DHT22;31949;51.404;-0.038;2022-11-02T13:54:22;14.80;99.90
46231;DHT22;31949;51.404;-0.038;2022-11-02T13:56:52;14.70;99.90
46231;DHT22;31949;51.404;-0.038;2022-11-02T13:59:25;14.80;99.90
46231;DHT22;31949;51.404;-0.038;2022-11-02T14:01:55;14.70;99.90
46231;DHT22;31949;51.404;-0.038;2022-11-02T14:04:23;14.80;99.90
46231;DHT22;31949;51.404;-0.038;2022-11-02T14:07:00;14.80;99.90
46231;DHT22;31949;51.404;-0.038;2022-11-02T14:09:38;14.80;99.90
46231;DHT22;31949;51.404;-0.038;2022-11-02T14:25:52;14.90;99.90
46231;DHT22;31949;51.404;-0.038;2022-11-02T14:30:59;14.90;99.90
46231;DHT22;31949;51.404;-0.038;2022-11-02T14:34:07;14.90;99.90
46231;DHT22;31949;51.404;-0.038;2022-11-02T14:47:31;14.80;99.90
46231;DHT22;31949;51.404;-0.038;2022-11-02T14:52:36;14.80;99.90
46231;DHT22;31949;51.404;-0.038;2022-11-02T14:55:27;14.70;99.90
46231;DHT22;31949;51.404;-0.038;2022-11-02T15:11:57;14.50;99.90
46231;DHT22;31949;51.404;-0.038;2022-11-02T15:22:51;14.50;99.90
46231;DHT22;31949;51.404;-0.038;2022-11-02T15:25:34;14.50;99.90
46231;DHT22;31949;51.404;-0.038;2022-11-02T15:28:11;14.50;99.90
46231;DHT22;31949;51.404;-0.038;2022-11-02T15:30:58;14.50;99.90
46231;DHT22;31949;51.404;-0.038;2022-11-02T15:35:53;14.40;99.90
46231;DHT22;31949;51.404;-0.038;2022-11-02T15:38:26;14.50;99.90
46231;DHT22;31949;51.404;-0.038;2022-11-02T16:02:02;14.50;99.90
46231;DHT22;31949;51.404;-0.038;2022-11-02T16:04:34;14.50;99.90
46231;DHT22;31949;51.404;-0.038;2022-11-02T16:07:05;14.50;99.90
46231;DHT22;31949;51.404;-0.038;2022-11-02T16:09:35;14.40;99.90
46231;DHT22;31949;51.404;-0.038;2022-11-02T16:17:20;14.50;99.90
46231;DHT22;31949;51.404;-0.038;2022-11-02T16:19:48;14.40;99.90
46231;DHT22;31949;51.404;-0.038;2022-11-02T16:22:25;14.50;99.90
46231;DHT22;31949;51.404;-0.038;2022-11-02T16:24:54;14.50;99.90
46231;DHT22;31949;51.404;-0.038;2022-11-02T16:27:21;14.40;99.90
46231;DHT22;31949;51.404;-0.038;2022-11-02T16:29:49;14.40;99.90
46231;DHT22;31949;51.404;-0.038;2022-11-02T16:32:16;14.50;99.90
46231;DHT22;31949;51.404;-0.038;2022-11-02T16:34:44;14.50;99.90
46231;DHT22;31949;51.404;-0.038;2022-11-02T16:37:12;14.60;99.90
46231;DHT22;31949;51.404;-0.038;2022-11-02T16:39:44;14.50;99.90
46231;DHT22;31949;51.404;-0.038;2022-11-02T16:42:18;14.60;99.90
46231;DHT22;31949;51.404;-0.038;2022-11-02T16:44:56;14.60;99.90
46231;DHT22;31949;51.404;-0.038;2022-11-02T16:47:39;14.60;99.90
46231;DHT22;31949;51.404;-0.038;2022-11-02T16:50:21;14.70;99.90
46231;DHT22;31949;51.404;-0.038;2022-11-02T16:53:00;14.70;99.90
46231;DHT22;31949;51.404;-0.038;2022-11-02T16:55:39;14.60;99.90
46231;DHT22;31949;51.404;-0.038;2022-11-02T16:58:12;14.70;99.90
46231;DHT22;31949;51.404;-0.038;2022-11-02T17:00:58;14.70;99.90
46231;DHT22;31949;51.404;-0.038;2022-11-02T17:03:29;14.80;99.90
46231;DHT22;31949;51.404;-0.038;2022-11-02T17:05:59;14.80;99.90
46231;DHT22;31949;51.404;-0.038;2022-11-02T17:10:57;14.80;99.90
46231;DHT22;31949;51.404;-0.038;2022-11-02T17:13:29;14.80;99.90
46231;DHT22;31949;51.404;-0.038;2022-11-02T17:16:07;14.90;99.90
46231;DHT22;31949;51.404;-0.038;2022-11-02T17:18:35;14.90;99.90
46231;DHT22;31949;51.404;-0.038;2022-11-02T17:23:41;14.90;99.90
46231;DHT22;31949;51.404;-0.038;2022-11-02T17:28:51;14.90;99.90
46231;DHT22;31949;51.404;-0.038;2022-11-02T17:31:22;15.00;99.90
46231;DHT22;31949;51.404;-0.038;2022-11-02T17:33:51;15.00;99.90
46231;DHT22;31949;51.404;-0.038;2022-11-02T17:36:19;15.00;99.90
46231;DHT22;31949;51.404;-0.038;2022-11-02T17:38:51;15.10;99.90
46231;DHT22;31949;51.404;-0.038;2022-11-02T17:41:35;15.00;99.90
46231;DHT22;31949;51.404;-0.038;2022-11-02T17:44:20;15.00;99.90
46231;DHT22;31949;51.404;-0.038;2022-11-02T17:46:47;15.00;99.90
46231;DHT22;31949;51.404;-0.038;2022-11-02T17:49:15;15.00;99.90
46231;DHT22;31949;51.404;-0.038;2022-11-02T17:51:42;15.10;99.90
46231;DHT22;31949;51.404;-0.038;2022-11-02T17:54:12;15.20;99.90
46231;DHT22;31949;51.404;-0.038;2022-11-02T17:56:40;15.10;99.90
46231;DHT22;31949;51.404;-0.038;2022-11-02T17:59:07;15.20;99.90
46231;DHT22;31949;51.404;-0.038;2022-11-02T18:01:35;15.20;99.90
46231;DHT22;31949;51.404;-0.038;2022-11-02T18:04:02;15.20;99.90
46231;DHT22;31949;51.404;-0.038;2022-11-02T18:06:29;15.20;99.90
46231;DHT22;31949;51.404;-0.038;2022-11-02T18:08:57;15.10;99.90
46231;DHT22;31949;51.404;-0.038;2022-11-02T18:11:45;15.10;99.90
46231;DHT22;31949;51.404;-0.038;2022-11-02T18:14:14;15.10;99.90
46231;DHT22;31949;51.404;-0.038;2022-11-02T18:16:43;15.10;99.90
46231;DHT22;31949;51.404;-0.038;2022-11-02T18:19:11;15.00;99.90
46231;DHT22;31949;51.404;-0.038;2022-11-02T18:21:38;14.90;99.90
46231;DHT22;31949;51.404;-0.038;2022-11-02T18:24:05;15.00;99.90
46231;DHT22;31949;51.404;-0.038;2022-11-02T18:26:33;14.90;99.90
46231;DHT22;31949;51.404;-0.038;2022-11-02T18:29:02;14.90;99.90
46231;DHT22;31949;51.404;-0.038;2022-11-02T18:31:31;14.90;99.90
46231;DHT22;31949;51.404;-0.038;2022-11-02T18:33:58;14.90;99.90
46231;DHT22;31949;51.404;-0.038;2022-11-02T18:36:26;14.90;99.90
46231;DHT22;31949;51.404;-0.038;2022-11-02T18:38:53;14.90;99.90
46231;DHT22;31949;51.404;-0.038;2022-11-02T18:41:21;14.80;99.90
46231;DHT22;31949;51.404;-0.038;2022-11-02T18:43:57;14.70;99.90
46231;DHT22;31949;51.404;-0.038;2022-11-02T18:46:33;14.70;99.90
46231;DHT22;31949;51.404;-0.038;2022-11-02T18:49:01;14.80;99.90
46231;DHT22;31949;51.404;-0.038;2022-11-02T18:51:28;14.70;99.90
46231;DHT22;31949;51.404;-0.038;2022-11-02T18:54:01;14.70;99.90
46231;DHT22;31949;51.404;-0.038;2022-11-02T18:56:29;14.70;99.90
46231;DHT22;31949;51.404;-0.038;2022-11-02T18:58:57;14.60;99.90